Latest Weather Observations for Evans Head

IDN60801

Issued at 11:03 am EST Monday 25 May 2015 (issued every 30 minutes, with the page automatically refreshed every 10 minutes)

About weather observations | Map of weather stations | Latest weather observations for NSW | Other Formats
Station Details ID: 058212 Name: EVANS HEAD RAAF BOMBING RANGE AWS Lat: -29.18 Lon: 153.40 Height: 62.5 m
Data from the previous 72 hours. | See also: Recent months at Evans Head
Date/Time
EST
Temp
°C
App
Temp
°C
Dew
Point
Rel
Hum
%
Delta-T
°C
Wind Press
QNH
hPa
Press
MSL
hPa
Rain
since 9 am
mm
Dir
 
Spd
km/h
Gust
km/h
Spd
kts
Gust
kts
25/11:00am 18.4 17.5 14.9 80 2.0 SSW 13 20 7 11 1031.4 1031.3 0.0
25/10:30am 17.2 16.2 14.5 84 1.5 SSW 13 20 7 11 1031.6 1031.5 0.0
25/10:00am 16.8 15.7 14.3 85 1.4 SSW 13 20 7 11 1031.9 1031.8 0.0
25/09:30am 16.1 14.4 14.8 92 0.7 SSW 17 22 9 12 1031.6 1031.5 0.0
25/09:00am 15.6 14.4 15.1 97 0.3 SSW 15 20 8 11 1031.3 1031.2 1.8
25/08:30am 14.6 13.0 13.8 95 0.4 SW 15 22 8 12 1031.2 1031.1 1.8
25/08:00am 14.1 11.6 12.3 89 1.0 SW 17 24 9 13 1031.1 1031.0 1.8
25/07:30am 13.8 11.1 11.7 87 1.1 SW 17 30 9 16 1031.0 1030.9 1.8
25/07:00am 13.3 10.8 11.0 86 1.2 SW 15 22 8 12 1030.8 1030.7 1.8
25/06:30am 13.3 10.8 11.0 86 1.2 SW 15 20 8 11 1030.8 1030.7 1.8
25/06:00am 13.7 11.2 11.0 84 1.4 SW 15 22 8 12 1030.5 1030.3 1.8
25/05:30am 13.6 11.2 11.3 86 1.2 SSW 15 22 8 12 1030.4 1030.2 1.8
25/05:00am 13.9 11.9 11.4 85 1.3 SW 13 17 7 9 1030.1 1029.9 1.8
25/04:30am 13.8 14.0 12.0 89 1.0 SW 2 11 1 6 1030.3 1030.1 1.8
25/04:00am 13.8 12.3 13.2 96 0.3 SW 13 15 7 8 1030.2 1030.0 1.8
25/03:30am 13.9 13.9 13.6 98 0.2 SW 6 9 3 5 1030.3 1030.1 1.8
25/03:00am 13.8 11.7 13.5 98 0.2 SSW 17 28 9 15 1030.2 1030.0 1.8
25/02:30am 13.2 10.9 12.9 98 0.2 SW 17 24 9 13 1030.1 1029.9 1.8
25/02:00am 13.3 10.4 13.0 98 0.2 SW 20 28 11 15 1030.3 1030.1 1.8
25/01:30am 13.8 11.3 13.5 98 0.2 SSW 19 26 10 14 1030.5 1030.3 1.8
25/01:00am 14.1 11.4 13.6 97 0.3 SSW 20 32 11 17 1030.4 1030.2 1.8
25/12:30am 14.1 12.1 13.8 98 0.2 SW 17 22 9 12 1030.4 1030.2 1.8
25/12:00am 14.2 12.6 13.9 98 0.2 SSW 15 20 8 11 1030.4 1030.2 1.8
 
Date/Time
EST
Temp
°C
App
Temp
°C
Dew
Point
Rel
Hum
%
Delta-T
°C
Wind Press
QNH
hPa
Press
MSL
hPa
Rain
since 9 am
mm
Dir
 
Spd
km/h
Gust
km/h
Spd
kts
Gust
kts
24/11:30pm 15.0 12.7 14.7 98 0.2 SSW 20 28 11 15 1030.5 1030.3 1.8
24/11:00pm 14.9 13.1 14.4 97 0.3 SSW 17 24 9 13 1030.8 1030.7 1.8
24/10:30pm 14.8 14.5 14.5 98 0.2 WSW 9 13 5 7 1030.8 1030.7 1.6
24/10:00pm 15.0 14.4 14.5 97 0.3 SSW 11 17 6 9 1030.8 1030.7 0.2
24/09:30pm 15.7 14.9 15.2 97 0.3 SW 13 19 7 10 1030.7 1030.6 0.0
24/09:00pm 17.7 14.3 13.6 77 2.3 SSE 24 33 13 18 1030.6 1030.4 0.0
24/08:30pm 17.7 14.8 15.0 84 1.6 SSE 24 33 13 18 1030.4 1030.2 0.0
24/08:00pm 17.4 14.1 14.9 85 1.4 SSE 26 37 14 20 1030.2 1030.0 0.0
24/07:30pm 16.3 13.0 16.0 98 0.2 SSE 28 41 15 22 1030.1 1029.9 0.0
24/07:13pm 16.7 13.4 16.1 96 0.4 S 28 46 15 25 1029.7 1029.6 0.0
24/07:00pm 16.4 14.9 15.3 93 0.6 S 17 22 9 12 1029.7 1029.6 0.0
24/06:30pm 16.2 13.9 14.0 87 1.2 S 19 24 10 13 1029.7 1029.6 0.0
24/06:00pm 16.7 14.7 13.8 83 1.6 SSW 17 24 9 13 1029.9 1029.7 0.0
24/05:30pm 16.8 14.8 13.9 83 1.6 S 17 26 9 14 1029.6 1029.5 0.0
24/05:00pm 16.9 14.6 14.0 83 1.6 S 19 28 10 15 1029.0 1028.9 0.0
24/04:30pm 17.5 14.2 14.0 80 2.0 S 24 33 13 18 1028.8 1028.7 0.0
24/04:00pm 18.3 15.1 14.2 77 2.3 SSE 24 39 13 21 1028.5 1028.4 0.0
24/03:30pm 18.3 14.1 13.6 74 2.7 S 28 37 15 20 1028.5 1028.4 0.0
24/03:00pm 18.8 15.1 13.9 73 2.8 S 26 35 14 19 1028.5 1028.4 0.0
24/02:30pm 19.1 15.0 13.9 72 3.0 SSE 28 39 15 21 1028.3 1028.2 0.0
24/02:00pm 18.9 14.8 13.7 72 3.0 SSE 28 41 15 22 1028.3 1028.2 0.0
24/01:30pm 19.4 15.3 13.8 70 3.2 S 28 35 15 19 1028.1 1028.0 0.0
24/01:00pm 19.0 14.3 13.2 69 3.3 SSE 30 43 16 23 1028.1 1028.0 0.0
24/12:30pm 19.4 15.3 13.8 70 3.2 SSE 28 39 15 21 1028.3 1028.2 0.0
24/12:00pm 19.0 13.7 13.2 69 3.3 SSE 33 44 18 24 1028.5 1028.4 0.0
24/11:49am 19.3 15.0 13.2 68 3.5 SSE 28 46 15 25 1028.7 1028.6 0.0
24/11:30am 19.5 16.0 13.4 68 3.5 SSE 24 35 13 19 1029.2 1029.1 0.0
24/11:00am 19.2 15.3 13.4 69 3.3 S 26 39 14 21 1029.6 1029.5 0.0
24/10:30am 18.0 14.7 12.7 71 3.0 S 22 35 12 19 1029.7 1029.6 0.0
24/10:00am 17.5 14.5 12.4 72 2.8 S 20 30 11 16 1029.7 1029.6 0.0
24/09:30am 16.6 12.8 11.3 71 2.9 SSW 22 33 12 18 1029.7 1029.6 0.0
24/09:00am 15.4 12.4 12.0 80 1.8 SSW 19 30 10 16 1029.6 1029.5 3.8
24/08:30am 14.5 11.4 11.5 82 1.6 SW 19 24 10 13 1029.3 1029.2 3.8
24/08:00am 13.8 10.6 11.1 84 1.4 SSW 19 28 10 15 1028.8 1028.7 3.8
24/07:30am 13.2 9.8 11.1 87 1.1 SSW 20 32 11 17 1028.3 1028.2 3.8
24/07:00am 13.2 9.8 11.1 87 1.1 SW 20 26 11 14 1028.0 1027.9 3.8
24/06:30am 13.3 10.1 11.2 87 1.1 SW 19 28 10 15 1027.5 1027.4 3.8
24/06:00am 13.1 10.0 11.5 90 0.8 SSW 19 26 10 14 1027.4 1027.3 3.8
24/05:30am 12.4 9.6 11.3 93 0.6 SW 17 24 9 13 1027.2 1027.1 3.8
24/05:00am 12.6 9.8 11.2 91 0.7 SW 17 26 9 14 1026.9 1026.8 3.8
24/04:30am 12.9 9.7 11.3 90 0.8 SSW 19 28 10 15 1026.6 1026.5 3.8
24/04:00am 12.7 9.9 11.3 91 0.7 SW 17 24 9 13 1026.6 1026.5 3.8
24/03:30am 13.2 10.5 11.6 90 0.9 SW 17 24 9 13 1026.5 1026.4 3.8
24/03:00am 13.1 10.1 11.8 92 0.7 SW 19 26 10 14 1026.4 1026.3 3.8
24/02:30am 13.3 10.4 12.2 93 0.6 SW 19 26 10 14 1026.4 1026.3 3.8
24/02:00am 13.7 10.7 12.4 92 0.7 SW 20 28 11 15 1026.5 1026.4 3.8
24/01:30am 14.0 11.2 13.2 95 0.4 SW 20 32 11 17 1026.3 1026.2 3.8
24/01:00am 13.7 11.5 13.2 97 0.3 SW 17 26 9 14 1026.3 1026.2 3.8
24/12:30am 13.6 10.8 13.1 97 0.3 SSW 20 30 11 16 1026.1 1026.0 3.8
24/12:00am 13.6 11.0 13.3 98 0.2 SSW 19 30 10 16 1026.1 1026.0 3.8
 
Date/Time
EST
Temp
°C
App
Temp
°C
Dew
Point
Rel
Hum
%
Delta-T
°C
Wind Press
QNH
hPa
Press
MSL
hPa
Rain
since 9 am
mm
Dir
 
Spd
km/h
Gust
km/h
Spd
kts
Gust
kts
23/11:30pm 13.9 12.2 13.6 98 0.2 SSW 15 26 8 14 1026.4 1026.3 3.8
23/11:00pm 13.9 11.2 13.6 98 0.2 SSW 20 26 11 14 1026.5 1026.4 3.8
23/10:30pm 13.8 12.1 13.6 99 0.1 SW 15 20 8 11 1026.6 1026.5 3.6
23/10:00pm 13.8 12.5 13.6 99 0.1 SW 13 19 7 10 1026.7 1026.6 3.6
23/09:30pm 14.0 11.4 13.8 99 0.1 SSW 20 33 11 18 1026.8 1026.7 3.6
23/09:00pm 14.0 12.7 13.8 99 0.1 SW 13 22 7 12 1026.8 1026.7 3.2
23/08:30pm 14.1 11.7 13.9 99 0.1 SSW 19 32 10 17 1026.6 1026.5 1.8
23/08:00pm 14.4 12.1 14.1 98 0.2 SSW 19 28 10 15 1026.5 1026.4 1.6
23/07:30pm 14.5 10.9 14.2 98 0.2 S 26 39 14 21 1026.4 1026.3 1.6
23/07:19pm 15.0 11.2 14.7 98 0.2 S 28 50 15 27 1026.3 1026.2 1.0
23/07:00pm 15.0 12.3 14.7 98 0.2 SSW 22 33 12 18 1026.0 1025.9 0.6
23/06:30pm 15.2 12.6 14.9 98 0.2 SSW 22 30 12 16 1025.6 1025.5 0.6
23/06:01pm 15.9 12.2 14.9 94 0.6 S 28 46 15 25 1025.4 1025.3 0.4
23/06:00pm 16.3 13.0 15.0 92 0.7 S 26 46 14 25 1025.4 1025.3 0.4
23/05:30pm 15.8 13.0 14.3 91 0.9 S 22 30 12 16 1025.1 1025.0 0.4
23/05:00pm 16.5 12.2 14.5 88 1.1 S 30 43 16 23 1024.9 1024.8 0.4
23/04:30pm 16.8 12.9 14.3 85 1.4 S 28 43 15 23 1024.6 1024.5 0.4
23/04:15pm 17.9 13.3 13.4 75 2.5 S 30 48 16 26 1024.5 1024.4 0.4
23/04:00pm 17.7 13.6 12.8 73 2.7 S 26 41 14 22 1024.5 1024.4 0.4
23/03:33pm 18.2 13.9 13.3 73 2.8 S 28 46 15 25 1024.4 1024.3 0.4
23/03:30pm 18.1 12.9 12.8 71 3.0 S 32 46 17 25 1024.4 1024.3 0.4
23/03:00pm 18.1 13.5 12.3 69 3.2 SSE 28 39 15 21 1024.1 1024.0 0.4
23/02:38pm 17.6 12.4 12.9 74 2.6 SSE 32 50 17 27 1024.1 1024.0 0.4
23/02:30pm 18.3 11.7 12.7 70 3.1 SSE 39 52 21 28 1024.0 1023.9 0.4
23/02:17pm 19.0 13.8 13.4 70 3.2 S 33 54 18 29 1023.9 1023.8 0.4
23/02:00pm 18.6 12.7 13.5 72 2.9 S 37 52 20 28 1023.9 1023.8 0.4
23/01:33pm 19.2 14.1 13.8 71 3.1 S 33 52 18 28 1023.9 1023.8 0.4
23/01:30pm 18.7 13.0 13.1 70 3.2 S 35 52 19 28 1023.9 1023.8 0.4
23/01:16pm 19.4 14.9 14.9 75 2.6 SSE 32 50 17 27 1024.0 1023.9 0.4
23/01:00pm 18.9 13.4 13.7 72 3.0 SSE 35 50 19 27 1024.0 1023.9 0.4
23/12:49pm 19.1 12.8 13.5 70 3.2 SSE 39 63 21 34 1024.0 1023.9 0.4
23/12:30pm 18.5 11.4 13.4 72 2.9 S 43 56 23 30 1024.2 1024.1 0.4
23/12:05pm 18.8 12.6 12.8 68 3.4 S 37 56 20 30 1024.3 1024.2 0.4
23/12:00pm 19.3 12.9 13.2 68 3.5 S 39 52 21 28 1024.3 1024.2 0.4
23/11:30am 18.6 12.6 14.5 77 2.4 S 39 57 21 31 1024.4 1024.3 0.4
23/11:00am 17.0 11.9 13.7 81 1.9 S 33 54 18 29 1024.6 1024.5 0.4
23/10:30am 15.7 13.6 15.2 97 0.3 S 20 32 11 17 1024.8 1024.7 0.4
23/10:00am 15.9 12.8 15.6 98 0.2 S 26 39 14 21 1024.8 1024.7 0.4
23/09:30am 16.0 11.0 13.5 85 1.4 S 32 52 17 28 1024.7 1024.6 0.0
23/09:26am 16.4 11.2 13.5 83 1.6 S 33 52 18 28 1024.7 1024.6 0.0
23/09:00am 15.3 11.4 14.3 94 0.6 SSW 28 44 15 24 1024.6 1024.5 0.6
23/08:30am 14.6 11.0 14.1 97 0.3 SSW 26 37 14 20 1024.2 1024.1 0.6
23/08:00am 13.9 10.4 13.4 97 0.3 SSW 24 35 13 19 1023.9 1023.8 0.6
23/07:30am 13.7 10.1 13.2 97 0.3 SSW 24 35 13 19 1023.4 1023.3 0.2
23/07:00am 14.7 9.9 11.7 82 1.6 SSW 28 41 15 22 1022.7 1022.6 0.0
23/06:30am 14.7 9.8 11.3 80 1.8 SSW 28 41 15 22 1022.3 1022.2 0.0
23/06:00am 14.5 9.6 11.3 81 1.7 SSW 28 41 15 22 1021.9 1021.8 0.0
23/05:30am 14.8 9.4 11.0 78 2.0 SSW 30 43 16 23 1021.4 1021.3 0.0
23/05:00am 14.6 8.7 10.6 77 2.1 SSW 32 52 17 28 1021.0 1020.9 0.0
23/04:57am 14.4 8.9 10.6 78 2.0 SSW 30 48 16 26 1020.9 1020.8 0.0
23/04:30am 14.6 9.8 10.4 76 2.2 SSW 26 43 14 23 1020.8 1020.7 0.0
23/04:00am 14.8 9.8 10.8 77 2.1 SSW 28 44 15 24 1020.3 1020.2 0.0
23/03:30am 14.4 9.2 10.4 77 2.1 SSW 28 39 15 21 1020.2 1020.1 0.0
23/03:00am 15.1 10.0 10.5 74 2.4 S 28 37 15 20 1020.2 1020.1 0.0
23/02:30am 15.0 10.2 10.4 74 2.4 SSW 26 41 14 22 1020.2 1020.1 0.0
23/02:11am 15.0 9.1 10.6 75 2.3 SSW 32 50 17 27 1020.0 1019.9 0.0
23/02:00am 15.0 9.9 10.6 75 2.3 SSW 28 41 15 22 1020.0 1019.9 0.0
23/01:30am 15.3 9.6 11.3 77 2.1 S 32 50 17 27 1020.0 1019.9 0.0
23/01:02am 14.7 9.5 11.5 81 1.7 S 30 48 16 26 1019.8 1019.7 0.0
23/01:00am 14.8 9.2 11.6 81 1.7 S 32 48 17 26 1019.8 1019.7 0.0
23/12:30am 16.3 9.2 11.0 71 2.8 S 39 65 21 35 1019.8 1019.7 0.0
23/12:01am 15.9 10.0 10.4 70 2.9 SSW 32 50 17 27 1019.4 1019.3 0.0
23/12:00am 15.7 10.1 10.2 70 2.9 SSW 30 44 16 24 1019.4 1019.3 0.0
 
Date/Time
EST
Temp
°C
App
Temp
°C
Dew
Point
Rel
Hum
%
Delta-T
°C
Wind Press
QNH
hPa
Press
MSL
hPa
Rain
since 9 am
mm
Dir
 
Spd
km/h
Gust
km/h
Spd
kts
Gust
kts
22/11:30pm 16.2 10.8 10.9 71 2.8 SSW 30 54 16 29 1019.1 1019.0 0.0
22/11:00pm 16.2 10.9 11.2 72 2.7 S 30 48 16 26 1019.2 1019.1 0.0
22/10:30pm 16.0 10.2 11.4 74 2.5 SSW 33 52 18 28 1018.8 1018.7 0.0
22/10:00pm 15.8 10.9 11.4 75 2.4 SSW 28 46 15 25 1018.6 1018.5 0.0
22/09:57pm 15.7 10.7 11.1 74 2.5 SSW 28 46 15 25 1018.5 1018.4 0.0
22/09:30pm 15.6 10.9 10.6 72 2.7 SSW 26 37 14 20 1018.3 1018.2 0.0
22/09:00pm 15.5 11.5 9.2 66 3.2 SSW 20 30 11 16 1017.9 1017.8 0.0
22/08:30pm 15.5 11.6 8.7 64 3.5 SSW 19 28 10 15 1017.6 1017.5 0.0
22/08:00pm 15.8 11.9 8.5 62 3.7 SW 19 28 10 15 1017.3 1017.2 0.0
22/07:30pm 15.9 13.1 8.4 61 3.8 SW 13 20 7 11 1016.8 1016.6 0.0
22/07:00pm 16.7 12.7 8.4 58 4.2 SW 19 28 10 15 1016.0 1015.8 0.0
22/06:30pm 16.9 14.1 8.6 58 4.3 WSW 13 22 7 12 1015.8 1015.6 0.0
22/06:00pm 16.8 14.0 8.5 58 4.3 WSW 13 22 7 12 1015.4 1015.2 0.0
22/05:30pm 16.6 13.7 8.3 58 4.2 W 13 20 7 11 1014.9 1014.7 0.0
22/05:00pm 16.2 13.7 8.4 60 4.0 W 11 20 6 11 1014.6 1014.4 0.0
22/04:30pm 17.2 15.3 8.9 58 4.3 W 9 15 5 8 1014.5 1014.3 0.0
22/04:00pm 18.2 14.9 8.2 52 5.1 WSW 15 24 8 13 1014.1 1013.9 0.0
22/03:30pm 18.6 15.1 8.6 52 5.2 WSW 17 22 9 12 1013.8 1013.6 0.0
22/03:00pm 19.4 15.8 8.4 49 5.7 W 17 24 9 13 1013.6 1013.4 0.0
22/02:30pm 19.6 16.6 9.2 51 5.5 WSW 15 30 8 16 1013.6 1013.4 0.0
22/02:00pm 19.2 15.3 8.8 51 5.4 W 19 28 10 15 1013.5 1013.3 0.0
22/01:30pm 19.3 15.5 9.2 52 5.3 WSW 19 35 10 19 1013.6 1013.4 0.0
22/01:00pm 19.4 16.3 10.4 56 4.9 W 17 24 9 13 1013.9 1013.7 0.0
22/12:30pm 19.2 15.9 9.7 54 5.1 W 17 32 9 17 1014.1 1013.9 0.0
22/12:00pm 18.7 15.8 9.8 56 4.7 W 15 32 8 17 1014.5 1014.3 0.0
22/11:30am 19.0 16.3 11.8 63 4.0 W 17 26 9 14 1014.8 1014.6 0.0

Other Formats:

Comma delimited format used in spreadsheet applications
http://www.bom.gov.au/fwo/IDN60801/IDN60801.94598.axf

JavaScript Object Notation format (JSON) in row-major order
http://www.bom.gov.au/fwo/IDN60801/IDN60801.94598.json